sensor_id;sensor_type;location;lat;lon;timestamp;P1;durP1;ratioP1;P2;durP2;ratioP2
37971;SDS011;23794;48.234;8.344;2024-02-26T00:00:30;0.93;;;0.55;;
37971;SDS011;23794;48.234;8.344;2024-02-26T00:02:56;1.70;;;0.57;;
37971;SDS011;23794;48.234;8.344;2024-02-26T00:05:23;1.02;;;0.70;;
37971;SDS011;23794;48.234;8.344;2024-02-26T00:07:50;3.05;;;1.65;;
37971;SDS011;23794;48.234;8.344;2024-02-26T00:10:16;5.47;;;1.92;;
37971;SDS011;23794;48.234;8.344;2024-02-26T00:12:43;2.75;;;1.58;;
37971;SDS011;23794;48.234;8.344;2024-02-26T00:15:10;2.72;;;1.00;;
37971;SDS011;23794;48.234;8.344;2024-02-26T00:17:37;1.42;;;0.88;;
37971;SDS011;23794;48.234;8.344;2024-02-26T00:20:04;2.53;;;0.73;;
37971;SDS011;23794;48.234;8.344;2024-02-26T00:22:35;1.27;;;0.47;;
37971;SDS011;23794;48.234;8.344;2024-02-26T00:25:02;2.05;;;0.60;;
37971;SDS011;23794;48.234;8.344;2024-02-26T00:27:29;1.15;;;0.60;;
37971;SDS011;23794;48.234;8.344;2024-02-26T00:29:57;1.25;;;0.73;;
37971;SDS011;23794;48.234;8.344;2024-02-26T00:32:24;0.77;;;0.40;;
37971;SDS011;23794;48.234;8.344;2024-02-26T00:34:51;1.38;;;0.60;;
37971;SDS011;23794;48.234;8.344;2024-02-26T00:37:18;1.05;;;0.60;;
37971;SDS011;23794;48.234;8.344;2024-02-26T00:39:44;1.00;;;0.50;;
37971;SDS011;23794;48.234;8.344;2024-02-26T00:42:12;0.82;;;0.45;;
37971;SDS011;23794;48.234;8.344;2024-02-26T00:44:39;1.65;;;0.47;;
37971;SDS011;23794;48.234;8.344;2024-02-26T00:47:06;1.02;;;0.60;;
37971;SDS011;23794;48.234;8.344;2024-02-26T00:49:32;0.98;;;0.60;;
37971;SDS011;23794;48.234;8.344;2024-02-26T00:51:59;0.95;;;0.50;;
37971;SDS011;23794;48.234;8.344;2024-02-26T00:54:26;1.02;;;0.50;;
37971;SDS011;23794;48.234;8.344;2024-02-26T00:56:52;1.15;;;0.68;;
37971;SDS011;23794;48.234;8.344;2024-02-26T00:59:19;1.27;;;0.60;;
37971;SDS011;23794;48.234;8.344;2024-02-26T01:01:45;0.80;;;0.45;;
37971;SDS011;23794;48.234;8.344;2024-02-26T01:04:12;1.38;;;0.60;;
37971;SDS011;23794;48.234;8.344;2024-02-26T01:06:39;1.20;;;0.50;;
37971;SDS011;23794;48.234;8.344;2024-02-26T01:09:06;1.70;;;0.60;;
37971;SDS011;23794;48.234;8.344;2024-02-26T01:11:32;1.67;;;0.73;;
37971;SDS011;23794;48.234;8.344;2024-02-26T01:13:59;1.13;;;0.43;;
37971;SDS011;23794;48.234;8.344;2024-02-26T01:16:26;1.70;;;0.80;;
37971;SDS011;23794;48.234;8.344;2024-02-26T01:18:55;0.85;;;0.55;;
37971;SDS011;23794;48.234;8.344;2024-02-26T01:21:21;0.80;;;0.57;;
37971;SDS011;23794;48.234;8.344;2024-02-26T01:23:48;0.63;;;0.43;;
37971;SDS011;23794;48.234;8.344;2024-02-26T01:26:15;1.55;;;0.60;;
37971;SDS011;23794;48.234;8.344;2024-02-26T01:28:41;1.10;;;0.50;;
37971;SDS011;23794;48.234;8.344;2024-02-26T01:31:09;1.95;;;0.32;;
37971;SDS011;23794;48.234;8.344;2024-02-26T01:33:36;0.68;;;0.30;;
37971;SDS011;23794;48.234;8.344;2024-02-26T01:36:03;0.65;;;0.40;;
37971;SDS011;23794;48.234;8.344;2024-02-26T01:38:30;0.85;;;0.45;;
37971;SDS011;23794;48.234;8.344;2024-02-26T01:40:57;0.80;;;0.40;;
37971;SDS011;23794;48.234;8.344;2024-02-26T01:43:23;0.50;;;0.30;;
37971;SDS011;23794;48.234;8.344;2024-02-26T01:45:50;1.05;;;0.40;;
37971;SDS011;23794;48.234;8.344;2024-02-26T01:48:16;0.75;;;0.40;;
37971;SDS011;23794;48.234;8.344;2024-02-26T01:50:43;0.82;;;0.35;;
37971;SDS011;23794;48.234;8.344;2024-02-26T01:53:10;0.47;;;0.38;;
37971;SDS011;23794;48.234;8.344;2024-02-26T01:55:37;0.55;;;0.30;;
37971;SDS011;23794;48.234;8.344;2024-02-26T01:58:06;0.52;;;0.30;;
37971;SDS011;23794;48.234;8.344;2024-02-26T02:00:33;0.80;;;0.30;;
37971;SDS011;23794;48.234;8.344;2024-02-26T02:03:01;0.52;;;0.30;;
37971;SDS011;23794;48.234;8.344;2024-02-26T02:05:29;0.20;;;0.15;;
37971;SDS011;23794;48.234;8.344;2024-02-26T02:07:57;1.10;;;0.30;;
37971;SDS011;23794;48.234;8.344;2024-02-26T02:10:23;0.38;;;0.22;;
37971;SDS011;23794;48.234;8.344;2024-02-26T02:12:52;0.68;;;0.30;;
37971;SDS011;23794;48.234;8.344;2024-02-26T02:15:19;0.50;;;0.30;;
37971;SDS011;23794;48.234;8.344;2024-02-26T02:17:46;0.52;;;0.30;;
37971;SDS011;23794;48.234;8.344;2024-02-26T02:20:17;0.73;;;0.30;;
37971;SDS011;23794;48.234;8.344;2024-02-26T02:22:45;0.60;;;0.28;;
37971;SDS011;23794;48.234;8.344;2024-02-26T02:25:12;0.52;;;0.40;;
37971;SDS011;23794;48.234;8.344;2024-02-26T02:27:39;0.32;;;0.28;;
37971;SDS011;23794;48.234;8.344;2024-02-26T02:30:07;0.63;;;0.40;;
37971;SDS011;23794;48.234;8.344;2024-02-26T02:32:35;1.67;;;0.40;;
37971;SDS011;23794;48.234;8.344;2024-02-26T02:35:05;1.13;;;0.20;;
37971;SDS011;23794;48.234;8.344;2024-02-26T02:37:32;1.35;;;0.55;;
37971;SDS011;23794;48.234;8.344;2024-02-26T02:39:58;0.57;;;0.20;;
37971;SDS011;23794;48.234;8.344;2024-02-26T02:42:26;0.30;;;0.22;;
37971;SDS011;23794;48.234;8.344;2024-02-26T02:44:52;0.30;;;0.20;;
37971;SDS011;23794;48.234;8.344;2024-02-26T02:47:19;0.80;;;0.45;;
37971;SDS011;23794;48.234;8.344;2024-02-26T02:49:46;0.55;;;0.25;;
37971;SDS011;23794;48.234;8.344;2024-02-26T02:52:12;0.98;;;0.40;;
37971;SDS011;23794;48.234;8.344;2024-02-26T02:54:39;0.82;;;0.40;;
37971;SDS011;23794;48.234;8.344;2024-02-26T02:57:08;0.68;;;0.32;;
37971;SDS011;23794;48.234;8.344;2024-02-26T02:59:35;0.88;;;0.32;;
37971;SDS011;23794;48.234;8.344;2024-02-26T03:02:03;0.57;;;0.40;;
37971;SDS011;23794;48.234;8.344;2024-02-26T03:04:31;1.52;;;0.35;;
37971;SDS011;23794;48.234;8.344;2024-02-26T03:06:58;2.63;;;0.47;;
37971;SDS011;23794;48.234;8.344;2024-02-26T03:09:25;0.50;;;0.30;;
37971;SDS011;23794;48.234;8.344;2024-02-26T03:11:51;0.80;;;0.30;;
37971;SDS011;23794;48.234;8.344;2024-02-26T03:14:18;0.68;;;0.50;;
37971;SDS011;23794;48.234;8.344;2024-02-26T03:16:45;0.73;;;0.40;;
37971;SDS011;23794;48.234;8.344;2024-02-26T03:19:14;2.22;;;0.38;;
37971;SDS011;23794;48.234;8.344;2024-02-26T03:21:42;0.50;;;0.30;;
37971;SDS011;23794;48.234;8.344;2024-02-26T03:24:09;1.15;;;0.30;;
37971;SDS011;23794;48.234;8.344;2024-02-26T03:26:36;2.38;;;0.40;;
37971;SDS011;23794;48.234;8.344;2024-02-26T03:29:03;0.85;;;0.55;;
37971;SDS011;23794;48.234;8.344;2024-02-26T03:31:31;1.00;;;0.40;;
37971;SDS011;23794;48.234;8.344;2024-02-26T03:33:57;0.77;;;0.32;;
37971;SDS011;23794;48.234;8.344;2024-02-26T03:36:24;0.65;;;0.50;;
37971;SDS011;23794;48.234;8.344;2024-02-26T03:38:51;0.47;;;0.38;;
37971;SDS011;23794;48.234;8.344;2024-02-26T03:41:18;0.60;;;0.40;;
37971;SDS011;23794;48.234;8.344;2024-02-26T03:43:44;0.82;;;0.30;;
37971;SDS011;23794;48.234;8.344;2024-02-26T03:46:11;0.77;;;0.52;;
37971;SDS011;23794;48.234;8.344;2024-02-26T03:48:40;5.78;;;1.30;;
37971;SDS011;23794;48.234;8.344;2024-02-26T03:51:10;0.50;;;0.40;;
37971;SDS011;23794;48.234;8.344;2024-02-26T03:53:37;1.35;;;0.50;;
37971;SDS011;23794;48.234;8.344;2024-02-26T03:56:04;1.35;;;0.63;;
37971;SDS011;23794;48.234;8.344;2024-02-26T03:58:32;4.40;;;1.25;;
37971;SDS011;23794;48.234;8.344;2024-02-26T04:00:59;3.75;;;1.40;;
37971;SDS011;23794;48.234;8.344;2024-02-26T04:03:27;4.78;;;1.58;;
37971;SDS011;23794;48.234;8.344;2024-02-26T04:05:53;11.60;;;4.32;;
37971;SDS011;23794;48.234;8.344;2024-02-26T04:08:20;14.20;;;5.40;;
37971;SDS011;23794;48.234;8.344;2024-02-26T04:10:47;10.13;;;3.33;;
37971;SDS011;23794;48.234;8.344;2024-02-26T04:13:13;4.07;;;1.75;;
37971;SDS011;23794;48.234;8.344;2024-02-26T04:15:41;3.00;;;1.30;;
37971;SDS011;23794;48.234;8.344;2024-02-26T04:18:07;1.13;;;0.60;;
37971;SDS011;23794;48.234;8.344;2024-02-26T04:20:34;2.13;;;0.70;;
37971;SDS011;23794;48.234;8.344;2024-02-26T04:23:02;2.00;;;0.40;;
37971;SDS011;23794;48.234;8.344;2024-02-26T04:25:29;1.02;;;0.30;;
37971;SDS011;23794;48.234;8.344;2024-02-26T04:27:55;0.32;;;0.30;;
37971;SDS011;23794;48.234;8.344;2024-02-26T04:30:22;0.40;;;0.22;;
37971;SDS011;23794;48.234;8.344;2024-02-26T04:32:49;0.40;;;0.30;;
37971;SDS011;23794;48.234;8.344;2024-02-26T04:35:16;1.05;;;0.60;;
37971;SDS011;23794;48.234;8.344;2024-02-26T04:37:43;0.60;;;0.20;;
37971;SDS011;23794;48.234;8.344;2024-02-26T04:40:10;0.30;;;0.20;;
37971;SDS011;23794;48.234;8.344;2024-02-26T04:42:37;0.38;;;0.25;;
37971;SDS011;23794;48.234;8.344;2024-02-26T04:45:04;0.30;;;0.20;;
37971;SDS011;23794;48.234;8.344;2024-02-26T04:47:31;0.35;;;0.20;;
37971;SDS011;23794;48.234;8.344;2024-02-26T04:49:57;0.60;;;0.50;;
37971;SDS011;23794;48.234;8.344;2024-02-26T04:52:25;1.77;;;1.08;;
37971;SDS011;23794;48.234;8.344;2024-02-26T04:54:52;2.25;;;1.02;;
37971;SDS011;23794;48.234;8.344;2024-02-26T04:57:18;1.30;;;0.73;;
37971;SDS011;23794;48.234;8.344;2024-02-26T04:59:45;1.65;;;1.00;;
37971;SDS011;23794;48.234;8.344;2024-02-26T05:02:13;3.45;;;1.50;;
37971;SDS011;23794;48.234;8.344;2024-02-26T05:04:40;2.90;;;2.10;;
37971;SDS011;23794;48.234;8.344;2024-02-26T05:07:06;2.55;;;1.60;;
37971;SDS011;23794;48.234;8.344;2024-02-26T05:09:33;2.85;;;1.67;;
37971;SDS011;23794;48.234;8.344;2024-02-26T05:12:00;3.08;;;1.60;;
37971;SDS011;23794;48.234;8.344;2024-02-26T05:14:27;2.38;;;1.70;;
37971;SDS011;23794;48.234;8.344;2024-02-26T05:16:53;2.50;;;1.27;;
37971;SDS011;23794;48.234;8.344;2024-02-26T05:19:20;2.03;;;1.30;;
37971;SDS011;23794;48.234;8.344;2024-02-26T05:21:47;2.00;;;1.30;;
37971;SDS011;23794;48.234;8.344;2024-02-26T05:24:15;2.88;;;1.60;;
37971;SDS011;23794;48.234;8.344;2024-02-26T05:26:44;2.72;;;1.40;;
37971;SDS011;23794;48.234;8.344;2024-02-26T05:29:11;2.17;;;1.10;;
37971;SDS011;23794;48.234;8.344;2024-02-26T05:31:38;3.30;;;1.10;;
37971;SDS011;23794;48.234;8.344;2024-02-26T05:34:05;1.30;;;0.70;;
37971;SDS011;23794;48.234;8.344;2024-02-26T05:36:32;0.80;;;0.40;;
37971;SDS011;23794;48.234;8.344;2024-02-26T05:39:00;0.98;;;0.30;;
37971;SDS011;23794;48.234;8.344;2024-02-26T05:41:27;0.80;;;0.32;;
37971;SDS011;23794;48.234;8.344;2024-02-26T05:43:54;0.57;;;0.30;;
37971;SDS011;23794;48.234;8.344;2024-02-26T05:46:21;0.32;;;0.30;;
37971;SDS011;23794;48.234;8.344;2024-02-26T05:48:50;1.45;;;0.85;;
37971;SDS011;23794;48.234;8.344;2024-02-26T05:51:18;0.70;;;0.30;;
37971;SDS011;23794;48.234;8.344;2024-02-26T05:53:45;0.73;;;0.40;;
37971;SDS011;23794;48.234;8.344;2024-02-26T05:56:13;0.40;;;0.30;;
37971;SDS011;23794;48.234;8.344;2024-02-26T05:58:40;0.50;;;0.30;;
37971;SDS011;23794;48.234;8.344;2024-02-26T06:01:06;1.95;;;0.47;;
37971;SDS011;23794;48.234;8.344;2024-02-26T06:03:33;1.42;;;0.70;;
37971;SDS011;23794;48.234;8.344;2024-02-26T06:06:00;1.98;;;0.70;;
37971;SDS011;23794;48.234;8.344;2024-02-26T06:08:26;1.20;;;0.50;;
37971;SDS011;23794;48.234;8.344;2024-02-26T06:10:53;0.60;;;0.28;;
37971;SDS011;23794;48.234;8.344;2024-02-26T06:13:20;0.85;;;0.25;;
37971;SDS011;23794;48.234;8.344;2024-02-26T06:15:47;0.38;;;0.30;;
37971;SDS011;23794;48.234;8.344;2024-02-26T06:18:13;1.05;;;0.50;;
37971;SDS011;23794;48.234;8.344;2024-02-26T06:20:40;0.88;;;0.60;;
37971;SDS011;23794;48.234;8.344;2024-02-26T06:23:07;1.10;;;0.70;;
37971;SDS011;23794;48.234;8.344;2024-02-26T06:25:33;1.63;;;0.80;;
37971;SDS011;23794;48.234;8.344;2024-02-26T06:28:00;1.13;;;0.70;;
37971;SDS011;23794;48.234;8.344;2024-02-26T06:30:27;1.55;;;0.45;;
37971;SDS011;23794;48.234;8.344;2024-02-26T06:32:53;1.13;;;0.70;;
37971;SDS011;23794;48.234;8.344;2024-02-26T06:35:20;0.73;;;0.40;;
37971;SDS011;23794;48.234;8.344;2024-02-26T06:37:47;1.17;;;0.45;;
37971;SDS011;23794;48.234;8.344;2024-02-26T06:40:13;0.90;;;0.40;;
37971;SDS011;23794;48.234;8.344;2024-02-26T06:42:40;1.80;;;0.40;;
37971;SDS011;23794;48.234;8.344;2024-02-26T06:45:07;0.70;;;0.28;;
37971;SDS011;23794;48.234;8.344;2024-02-26T06:47:34;0.90;;;0.50;;
37971;SDS011;23794;48.234;8.344;2024-02-26T06:50:01;1.30;;;0.55;;
37971;SDS011;23794;48.234;8.344;2024-02-26T06:52:27;0.45;;;0.35;;
37971;SDS011;23794;48.234;8.344;2024-02-26T06:54:54;0.50;;;0.30;;
37971;SDS011;23794;48.234;8.344;2024-02-26T06:57:21;0.40;;;0.30;;
37971;SDS011;23794;48.234;8.344;2024-02-26T06:59:48;0.70;;;0.13;;
37971;SDS011;23794;48.234;8.344;2024-02-26T07:02:15;0.40;;;0.25;;
37971;SDS011;23794;48.234;8.344;2024-02-26T07:04:42;0.75;;;0.20;;
37971;SDS011;23794;48.234;8.344;2024-02-26T07:07:09;0.80;;;0.40;;
37971;SDS011;23794;48.234;8.344;2024-02-26T07:09:37;0.95;;;0.40;;
37971;SDS011;23794;48.234;8.344;2024-02-26T07:12:04;0.40;;;0.20;;
37971;SDS011;23794;48.234;8.344;2024-02-26T07:14:30;0.50;;;0.20;;
37971;SDS011;23794;48.234;8.344;2024-02-26T07:16:59;0.90;;;0.40;;
37971;SDS011;23794;48.234;8.344;2024-02-26T07:19:25;1.67;;;0.30;;
37971;SDS011;23794;48.234;8.344;2024-02-26T07:21:52;1.65;;;0.93;;
37971;SDS011;23794;48.234;8.344;2024-02-26T07:24:19;1.77;;;0.95;;
37971;SDS011;23794;48.234;8.344;2024-02-26T07:26:45;3.65;;;1.70;;
37971;SDS011;23794;48.234;8.344;2024-02-26T07:29:12;3.58;;;2.30;;
37971;SDS011;23794;48.234;8.344;2024-02-26T07:31:39;2.22;;;1.45;;
37971;SDS011;23794;48.234;8.344;2024-02-26T07:34:05;2.63;;;1.10;;
37971;SDS011;23794;48.234;8.344;2024-02-26T07:36:32;0.98;;;0.50;;
37971;SDS011;23794;48.234;8.344;2024-02-26T07:38:59;3.47;;;1.17;;
37971;SDS011;23794;48.234;8.344;2024-02-26T07:41:25;1.48;;;1.10;;
37971;SDS011;23794;48.234;8.344;2024-02-26T07:43:52;5.32;;;2.45;;
37971;SDS011;23794;48.234;8.344;2024-02-26T07:46:19;2.67;;;1.40;;
37971;SDS011;23794;48.234;8.344;2024-02-26T07:48:46;1.73;;;0.95;;
37971;SDS011;23794;48.234;8.344;2024-02-26T07:51:13;0.80;;;0.50;;
37971;SDS011;23794;48.234;8.344;2024-02-26T07:53:43;0.70;;;0.37;;
37971;SDS011;23794;48.234;8.344;2024-02-26T07:56:10;1.00;;;0.40;;
37971;SDS011;23794;48.234;8.344;2024-02-26T07:58:36;0.70;;;0.30;;
37971;SDS011;23794;48.234;8.344;2024-02-26T08:01:03;0.45;;;0.20;;
37971;SDS011;23794;48.234;8.344;2024-02-26T08:03:30;0.93;;;0.63;;
37971;SDS011;23794;48.234;8.344;2024-02-26T08:05:57;3.88;;;0.85;;
37971;SDS011;23794;48.234;8.344;2024-02-26T08:08:24;2.50;;;0.70;;
37971;SDS011;23794;48.234;8.344;2024-02-26T08:10:51;0.80;;;0.43;;
37971;SDS011;23794;48.234;8.344;2024-02-26T08:13:17;0.90;;;0.40;;
37971;SDS011;23794;48.234;8.344;2024-02-26T08:15:44;0.98;;;0.70;;
37971;SDS011;23794;48.234;8.344;2024-02-26T08:18:11;1.75;;;0.68;;
37971;SDS011;23794;48.234;8.344;2024-02-26T08:20:38;0.40;;;0.32;;
37971;SDS011;23794;48.234;8.344;2024-02-26T08:23:05;0.32;;;0.22;;
37971;SDS011;23794;48.234;8.344;2024-02-26T08:25:31;0.65;;;0.30;;
37971;SDS011;23794;48.234;8.344;2024-02-26T08:27:58;0.60;;;0.20;;
37971;SDS011;23794;48.234;8.344;2024-02-26T08:30:24;0.25;;;0.20;;
37971;SDS011;23794;48.234;8.344;2024-02-26T08:32:51;0.57;;;0.40;;
37971;SDS011;23794;48.234;8.344;2024-02-26T08:35:19;1.80;;;0.70;;
37971;SDS011;23794;48.234;8.344;2024-02-26T08:37:47;2.53;;;1.02;;
37971;SDS011;23794;48.234;8.344;2024-02-26T08:40:14;6.10;;;3.03;;
37971;SDS011;23794;48.234;8.344;2024-02-26T08:42:41;3.47;;;1.65;;
37971;SDS011;23794;48.234;8.344;2024-02-26T08:45:08;3.25;;;1.35;;
37971;SDS011;23794;48.234;8.344;2024-02-26T08:47:35;2.10;;;1.00;;
37971;SDS011;23794;48.234;8.344;2024-02-26T08:50:03;1.08;;;0.60;;
37971;SDS011;23794;48.234;8.344;2024-02-26T08:52:30;1.20;;;0.60;;
37971;SDS011;23794;48.234;8.344;2024-02-26T08:54:57;0.80;;;0.52;;
37971;SDS011;23794;48.234;8.344;2024-02-26T08:57:24;1.38;;;0.55;;
37971;SDS011;23794;48.234;8.344;2024-02-26T08:59:53;0.45;;;0.32;;
37971;SDS011;23794;48.234;8.344;2024-02-26T09:02:20;0.57;;;0.50;;
37971;SDS011;23794;48.234;8.344;2024-02-26T09:04:46;0.90;;;0.40;;
37971;SDS011;23794;48.234;8.344;2024-02-26T09:07:13;0.70;;;0.40;;
37971;SDS011;23794;48.234;8.344;2024-02-26T09:09:40;0.95;;;0.50;;
37971;SDS011;23794;48.234;8.344;2024-02-26T09:12:07;0.98;;;0.50;;
37971;SDS011;23794;48.234;8.344;2024-02-26T09:14:33;0.52;;;0.30;;
37971;SDS011;23794;48.234;8.344;2024-02-26T09:17:00;0.55;;;0.30;;
37971;SDS011;23794;48.234;8.344;2024-02-26T09:19:27;0.50;;;0.38;;
37971;SDS011;23794;48.234;8.344;2024-02-26T09:21:56;0.93;;;0.40;;
37971;SDS011;23794;48.234;8.344;2024-02-26T09:24:24;2.15;;;0.70;;
37971;SDS011;23794;48.234;8.344;2024-02-26T09:26:51;0.65;;;0.40;;
37971;SDS011;23794;48.234;8.344;2024-02-26T09:29:18;1.65;;;0.50;;
37971;SDS011;23794;48.234;8.344;2024-02-26T09:31:45;1.95;;;0.80;;
37971;SDS011;23794;48.234;8.344;2024-02-26T09:34:14;2.08;;;0.80;;
37971;SDS011;23794;48.234;8.344;2024-02-26T09:36:41;2.33;;;0.88;;
37971;SDS011;23794;48.234;8.344;2024-02-26T09:39:08;1.42;;;0.75;;
37971;SDS011;23794;48.234;8.344;2024-02-26T09:41:38;2.20;;;0.70;;
37971;SDS011;23794;48.234;8.344;2024-02-26T09:44:05;2.15;;;1.30;;
37971;SDS011;23794;48.234;8.344;2024-02-26T09:46:31;2.88;;;1.70;;
37971;SDS011;23794;48.234;8.344;2024-02-26T09:48:58;2.60;;;1.40;;
37971;SDS011;23794;48.234;8.344;2024-02-26T09:51:25;1.73;;;0.98;;
37971;SDS011;23794;48.234;8.344;2024-02-26T09:53:52;4.15;;;1.85;;
37971;SDS011;23794;48.234;8.344;2024-02-26T09:56:20;7.63;;;4.75;;
37971;SDS011;23794;48.234;8.344;2024-02-26T09:58:48;6.75;;;4.10;;
37971;SDS011;23794;48.234;8.344;2024-02-26T10:01:20;6.53;;;3.55;;
37971;SDS011;23794;48.234;8.344;2024-02-26T10:03:49;5.97;;;3.83;;
37971;SDS011;23794;48.234;8.344;2024-02-26T10:06:18;3.40;;;2.17;;
37971;SDS011;23794;48.234;8.344;2024-02-26T10:08:45;3.10;;;1.67;;
37971;SDS011;23794;48.234;8.344;2024-02-26T10:11:13;2.22;;;1.40;;
37971;SDS011;23794;48.234;8.344;2024-02-26T10:13:41;4.03;;;1.63;;
37971;SDS011;23794;48.234;8.344;2024-02-26T10:16:12;3.50;;;2.20;;
37971;SDS011;23794;48.234;8.344;2024-02-26T10:18:50;3.75;;;2.20;;
37971;SDS011;23794;48.234;8.344;2024-02-26T10:21:25;3.60;;;1.95;;
37971;SDS011;23794;48.234;8.344;2024-02-26T10:23:52;2.17;;;1.45;;
37971;SDS011;23794;48.234;8.344;2024-02-26T10:26:19;1.85;;;1.35;;
37971;SDS011;23794;48.234;8.344;2024-02-26T10:28:46;1.90;;;1.13;;
37971;SDS011;23794;48.234;8.344;2024-02-26T10:31:18;1.80;;;1.10;;
37971;SDS011;23794;48.234;8.344;2024-02-26T10:33:45;1.20;;;0.70;;
37971;SDS011;23794;48.234;8.344;2024-02-26T10:36:12;2.53;;;0.90;;
37971;SDS011;23794;48.234;8.344;2024-02-26T10:38:39;1.50;;;0.80;;
37971;SDS011;23794;48.234;8.344;2024-02-26T10:41:06;1.23;;;0.60;;
37971;SDS011;23794;48.234;8.344;2024-02-26T10:43:32;1.60;;;1.10;;
37971;SDS011;23794;48.234;8.344;2024-02-26T10:45:59;2.15;;;1.05;;
37971;SDS011;23794;48.234;8.344;2024-02-26T10:48:26;1.30;;;0.80;;
37971;SDS011;23794;48.234;8.344;2024-02-26T10:50:53;1.20;;;0.93;;
37971;SDS011;23794;48.234;8.344;2024-02-26T10:53:22;1.50;;;0.80;;
37971;SDS011;23794;48.234;8.344;2024-02-26T10:55:54;1.17;;;0.70;;
37971;SDS011;23794;48.234;8.344;2024-02-26T10:58:23;1.00;;;0.68;;
37971;SDS011;23794;48.234;8.344;2024-02-26T11:00:51;1.67;;;0.90;;
37971;SDS011;23794;48.234;8.344;2024-02-26T11:03:19;3.85;;;1.30;;
37971;SDS011;23794;48.234;8.344;2024-02-26T11:05:48;6.07;;;3.80;;
37971;SDS011;23794;48.234;8.344;2024-02-26T11:08:18;2.20;;;1.50;;
37971;SDS011;23794;48.234;8.344;2024-02-26T11:10:48;1.63;;;1.00;;
37971;SDS011;23794;48.234;8.344;2024-02-26T11:13:19;1.35;;;0.85;;
37971;SDS011;23794;48.234;8.344;2024-02-26T11:15:47;1.50;;;0.90;;
37971;SDS011;23794;48.234;8.344;2024-02-26T11:18:15;1.65;;;0.98;;
37971;SDS011;23794;48.234;8.344;2024-02-26T11:20:46;0.90;;;0.60;;
37971;SDS011;23794;48.234;8.344;2024-02-26T11:23:14;2.83;;;1.08;;
37971;SDS011;23794;48.234;8.344;2024-02-26T11:25:41;2.60;;;1.23;;
37971;SDS011;23794;48.234;8.344;2024-02-26T11:28:10;1.50;;;0.88;;
37971;SDS011;23794;48.234;8.344;2024-02-26T11:30:43;1.70;;;0.95;;
37971;SDS011;23794;48.234;8.344;2024-02-26T11:33:13;2.70;;;1.13;;
37971;SDS011;23794;48.234;8.344;2024-02-26T11:35:40;1.38;;;0.80;;
37971;SDS011;23794;48.234;8.344;2024-02-26T11:38:07;4.65;;;1.00;;
37971;SDS011;23794;48.234;8.344;2024-02-26T11:40:38;4.43;;;1.80;;
37971;SDS011;23794;48.234;8.344;2024-02-26T11:43:08;4.22;;;2.58;;
37971;SDS011;23794;48.234;8.344;2024-02-26T11:48:21;1.65;;;1.02;;
37971;SDS011;23794;48.234;8.344;2024-02-26T11:50:50;2.05;;;1.30;;
37971;SDS011;23794;48.234;8.344;2024-02-26T11:53:24;2.45;;;1.40;;
37971;SDS011;23794;48.234;8.344;2024-02-26T11:58:41;1.73;;;1.00;;
37971;SDS011;23794;48.234;8.344;2024-02-26T12:06:56;3.00;;;1.75;;
37971;SDS011;23794;48.234;8.344;2024-02-26T12:09:39;1.10;;;0.47;;
37971;SDS011;23794;48.234;8.344;2024-02-26T12:12:08;0.90;;;0.70;;
37971;SDS011;23794;48.234;8.344;2024-02-26T12:14:38;2.00;;;1.00;;
37971;SDS011;23794;48.234;8.344;2024-02-26T12:17:07;1.95;;;0.80;;
37971;SDS011;23794;48.234;8.344;2024-02-26T12:19:51;4.65;;;2.58;;
37971;SDS011;23794;48.234;8.344;2024-02-26T12:22:20;9.52;;;2.70;;
37971;SDS011;23794;48.234;8.344;2024-02-26T12:24:46;2.53;;;1.30;;
37971;SDS011;23794;48.234;8.344;2024-02-26T12:27:13;1.85;;;0.85;;
37971;SDS011;23794;48.234;8.344;2024-02-26T12:29:41;1.48;;;0.80;;
37971;SDS011;23794;48.234;8.344;2024-02-26T12:32:08;1.75;;;0.98;;
37971;SDS011;23794;48.234;8.344;2024-02-26T12:34:35;1.58;;;0.82;;
37971;SDS011;23794;48.234;8.344;2024-02-26T12:37:02;1.55;;;0.88;;
37971;SDS011;23794;48.234;8.344;2024-02-26T12:39:29;6.53;;;2.30;;
37971;SDS011;23794;48.234;8.344;2024-02-26T12:41:57;2.78;;;1.38;;
37971;SDS011;23794;48.234;8.344;2024-02-26T12:44:26;3.75;;;1.35;;
37971;SDS011;23794;48.234;8.344;2024-02-26T12:47:02;2.45;;;0.80;;
37971;SDS011;23794;48.234;8.344;2024-02-26T12:49:30;1.25;;;0.90;;
37971;SDS011;23794;48.234;8.344;2024-02-26T12:51:58;0.70;;;0.50;;
37971;SDS011;23794;48.234;8.344;2024-02-26T12:54:28;3.20;;;0.60;;
37971;SDS011;23794;48.234;8.344;2024-02-26T12:56:58;1.33;;;0.75;;
37971;SDS011;23794;48.234;8.344;2024-02-26T12:59:27;1.42;;;0.98;;
37971;SDS011;23794;48.234;8.344;2024-02-26T13:01:54;1.17;;;0.70;;
37971;SDS011;23794;48.234;8.344;2024-02-26T13:04:21;0.70;;;0.50;;
37971;SDS011;23794;48.234;8.344;2024-02-26T13:06:48;1.35;;;0.60;;
37971;SDS011;23794;48.234;8.344;2024-02-26T13:09:15;1.38;;;0.60;;
37971;SDS011;23794;48.234;8.344;2024-02-26T13:11:44;1.98;;;0.52;;
37971;SDS011;23794;48.234;8.344;2024-02-26T13:14:20;1.52;;;1.10;;
37971;SDS011;23794;48.234;8.344;2024-02-26T13:16:57;1.67;;;0.73;;
37971;SDS011;23794;48.234;8.344;2024-02-26T13:19:24;0.47;;;0.40;;
37971;SDS011;23794;48.234;8.344;2024-02-26T13:21:51;2.35;;;0.70;;
37971;SDS011;23794;48.234;8.344;2024-02-26T13:24:19;1.00;;;0.60;;
37971;SDS011;23794;48.234;8.344;2024-02-26T13:26:46;2.00;;;0.52;;
37971;SDS011;23794;48.234;8.344;2024-02-26T13:29:17;0.88;;;0.50;;
37971;SDS011;23794;48.234;8.344;2024-02-26T13:31:44;1.02;;;0.50;;
37971;SDS011;23794;48.234;8.344;2024-02-26T13:34:11;2.30;;;0.68;;
37971;SDS011;23794;48.234;8.344;2024-02-26T13:36:38;1.15;;;0.60;;
37971;SDS011;23794;48.234;8.344;2024-02-26T13:39:04;1.35;;;0.70;;
37971;SDS011;23794;48.234;8.344;2024-02-26T13:41:31;2.10;;;0.80;;
37971;SDS011;23794;48.234;8.344;2024-02-26T13:43:58;4.70;;;1.30;;
37971;SDS011;23794;48.234;8.344;2024-02-26T13:46:25;1.00;;;0.50;;
37971;SDS011;23794;48.234;8.344;2024-02-26T13:48:53;0.70;;;0.50;;
37971;SDS011;23794;48.234;8.344;2024-02-26T13:51:21;1.75;;;0.60;;
37971;SDS011;23794;48.234;8.344;2024-02-26T13:53:48;1.20;;;0.60;;
37971;SDS011;23794;48.234;8.344;2024-02-26T13:56:14;1.15;;;0.68;;
37971;SDS011;23794;48.234;8.344;2024-02-26T13:58:41;1.23;;;0.65;;
37971;SDS011;23794;48.234;8.344;2024-02-26T14:01:07;3.25;;;0.65;;
37971;SDS011;23794;48.234;8.344;2024-02-26T14:03:35;1.95;;;0.80;;
37971;SDS011;23794;48.234;8.344;2024-02-26T14:06:02;0.75;;;0.50;;
37971;SDS011;23794;48.234;8.344;2024-02-26T14:08:29;1.38;;;0.80;;
37971;SDS011;23794;48.234;8.344;2024-02-26T14:10:55;3.28;;;0.82;;
37971;SDS011;23794;48.234;8.344;2024-02-26T14:13:22;1.80;;;0.57;;
37971;SDS011;23794;48.234;8.344;2024-02-26T14:15:49;1.77;;;0.70;;
37971;SDS011;23794;48.234;8.344;2024-02-26T14:18:16;1.85;;;0.70;;
37971;SDS011;23794;48.234;8.344;2024-02-26T14:20:43;1.25;;;0.52;;
37971;SDS011;23794;48.234;8.344;2024-02-26T14:23:10;0.68;;;0.40;;
37971;SDS011;23794;48.234;8.344;2024-02-26T14:25:37;1.92;;;0.60;;
37971;SDS011;23794;48.234;8.344;2024-02-26T14:28:04;2.88;;;0.85;;
37971;SDS011;23794;48.234;8.344;2024-02-26T14:30:31;1.98;;;0.70;;
37971;SDS011;23794;48.234;8.344;2024-02-26T14:32:59;0.98;;;0.50;;
37971;SDS011;23794;48.234;8.344;2024-02-26T14:35:26;0.80;;;0.50;;
37971;SDS011;23794;48.234;8.344;2024-02-26T14:37:52;2.78;;;0.70;;
37971;SDS011;23794;48.234;8.344;2024-02-26T14:40:20;2.45;;;0.68;;
37971;SDS011;23794;48.234;8.344;2024-02-26T14:42:47;3.95;;;0.75;;
37971;SDS011;23794;48.234;8.344;2024-02-26T14:45:14;2.00;;;0.50;;
37971;SDS011;23794;48.234;8.344;2024-02-26T14:47:40;0.80;;;0.40;;
37971;SDS011;23794;48.234;8.344;2024-02-26T14:50:07;1.10;;;0.57;;
37971;SDS011;23794;48.234;8.344;2024-02-26T14:52:34;0.88;;;0.40;;
37971;SDS011;23794;48.234;8.344;2024-02-26T14:55:01;0.98;;;0.50;;
37971;SDS011;23794;48.234;8.344;2024-02-26T14:57:27;1.63;;;0.47;;
37971;SDS011;23794;48.234;8.344;2024-02-26T14:59:54;0.70;;;0.40;;